20TS weather

Bains Private Airport
Bandera, Texas, United States

Public forecast

Using degrees Fahrenheit for public forecast. Weather courtesy of forecast.io.

Closest aviation weather report (METAR) to Bains Private Airport

Closest report is Kerrville Municipal Louis Schreiner Field, 10.1 nm (18.6 km) N. Retrieved 2020/01/22 13:35 UTC (11 minutes ago):

KERV 221335Z AUTO 00000KT 10SM RA OVC004 10/08 A3005 RMK AO2 T00950083

Closest aviation forecast (TAF) to Bains Private Airport

Closest forecast is San Antonio International Airport, 35.3 nm (65.5 km) ESE. Retrieved 2020/01/22 12:33 UTC (1 hour ago):

TAF KSAT 221130Z 2212/2318 12009KT 3SM -SHRA BR OVC004 FM222100 17007KT P6SM OVC006 PROB30 2221/2224 4SM -SHRA BR FM230000 15004KT 6SM BR OVC017 FM230900 28005KT 4SM BR BKN045 FM231200 32007KT P6SM SCT050